sensor_id;sensor_type;location;lat;lon;timestamp;temperature;humidity
947;DHT22;460;48.734;9.152;2023-06-14T00:01:50;14.80;51.30
947;DHT22;460;48.734;9.152;2023-06-14T00:04:16;14.80;51.20
947;DHT22;460;48.734;9.152;2023-06-14T00:06:44;14.60;52.00
947;DHT22;460;48.734;9.152;2023-06-14T00:09:13;14.80;52.20
947;DHT22;460;48.734;9.152;2023-06-14T00:11:40;14.80;52.50
947;DHT22;460;48.734;9.152;2023-06-14T00:14:07;14.70;51.50
947;DHT22;460;48.734;9.152;2023-06-14T00:16:34;14.70;52.70
947;DHT22;460;48.734;9.152;2023-06-14T00:19:02;14.80;53.00
947;DHT22;460;48.734;9.152;2023-06-14T00:21:29;14.90;53.60
947;DHT22;460;48.734;9.152;2023-06-14T00:23:57;14.90;53.40
947;DHT22;460;48.734;9.152;2023-06-14T00:26:26;14.70;53.20
947;DHT22;460;48.734;9.152;2023-06-14T00:28:53;14.80;52.70
947;DHT22;460;48.734;9.152;2023-06-14T00:31:19;14.80;52.60
947;DHT22;460;48.734;9.152;2023-06-14T00:33:46;14.70;52.90
947;DHT22;460;48.734;9.152;2023-06-14T00:36:14;14.60;52.80
947;DHT22;460;48.734;9.152;2023-06-14T00:38:41;14.40;53.40
947;DHT22;460;48.734;9.152;2023-06-14T00:41:07;14.50;53.80
947;DHT22;460;48.734;9.152;2023-06-14T00:43:36;14.60;53.00
947;DHT22;460;48.734;9.152;2023-06-14T00:46:02;14.60;53.40
947;DHT22;460;48.734;9.152;2023-06-14T00:48:30;14.60;53.60
947;DHT22;460;48.734;9.152;2023-06-14T00:50:57;14.50;53.70
947;DHT22;460;48.734;9.152;2023-06-14T00:53:26;14.40;53.70
947;DHT22;460;48.734;9.152;2023-06-14T00:55:53;14.30;53.40
947;DHT22;460;48.734;9.152;2023-06-14T00:58:22;14.20;53.90
947;DHT22;460;48.734;9.152;2023-06-14T01:00:50;14.00;53.50
947;DHT22;460;48.734;9.152;2023-06-14T01:03:17;14.00;54.00
947;DHT22;460;48.734;9.152;2023-06-14T01:05:47;14.10;54.00
947;DHT22;460;48.734;9.152;2023-06-14T01:08:23;14.10;54.50
947;DHT22;460;48.734;9.152;2023-06-14T01:10:56;14.10;54.50
947;DHT22;460;48.734;9.152;2023-06-14T01:13:28;14.00;55.30
947;DHT22;460;48.734;9.152;2023-06-14T01:15:59;14.00;55.50
947;DHT22;460;48.734;9.152;2023-06-14T01:18:28;14.00;54.20
947;DHT22;460;48.734;9.152;2023-06-14T01:20:56;14.10;53.70
947;DHT22;460;48.734;9.152;2023-06-14T01:23:26;14.00;54.60
947;DHT22;460;48.734;9.152;2023-06-14T01:25:59;13.90;54.10
947;DHT22;460;48.734;9.152;2023-06-14T01:28:29;13.90;53.70
947;DHT22;460;48.734;9.152;2023-06-14T01:31:00;13.90;54.10
947;DHT22;460;48.734;9.152;2023-06-14T01:33:31;13.90;54.70
947;DHT22;460;48.734;9.152;2023-06-14T01:35:59;13.80;54.40
947;DHT22;460;48.734;9.152;2023-06-14T01:38:31;13.70;54.40
947;DHT22;460;48.734;9.152;2023-06-14T01:41:00;13.70;54.60
947;DHT22;460;48.734;9.152;2023-06-14T01:43:30;13.60;54.40
947;DHT22;460;48.734;9.152;2023-06-14T01:45:58;13.60;54.60
947;DHT22;460;48.734;9.152;2023-06-14T01:48:27;13.50;55.00
947;DHT22;460;48.734;9.152;2023-06-14T01:50:55;13.40;55.00
947;DHT22;460;48.734;9.152;2023-06-14T01:53:22;13.40;55.70
947;DHT22;460;48.734;9.152;2023-06-14T01:55:51;13.50;55.50
947;DHT22;460;48.734;9.152;2023-06-14T01:58:21;13.40;56.50
947;DHT22;460;48.734;9.152;2023-06-14T02:00:50;13.50;56.90
947;DHT22;460;48.734;9.152;2023-06-14T02:03:21;13.50;57.20
947;DHT22;460;48.734;9.152;2023-06-14T02:05:50;13.40;57.70
947;DHT22;460;48.734;9.152;2023-06-14T02:08:16;13.30;58.20
947;DHT22;460;48.734;9.152;2023-06-14T02:10:43;13.40;57.40
947;DHT22;460;48.734;9.152;2023-06-14T02:13:11;13.30;55.70
947;DHT22;460;48.734;9.152;2023-06-14T02:15:38;13.30;57.60
947;DHT22;460;48.734;9.152;2023-06-14T02:18:05;13.20;58.90
947;DHT22;460;48.734;9.152;2023-06-14T02:20:32;13.10;60.30
947;DHT22;460;48.734;9.152;2023-06-14T02:23:00;13.10;60.00
947;DHT22;460;48.734;9.152;2023-06-14T02:25:28;13.00;59.80
947;DHT22;460;48.734;9.152;2023-06-14T02:27:55;12.90;60.40
947;DHT22;460;48.734;9.152;2023-06-14T02:30:24;13.00;61.20
947;DHT22;460;48.734;9.152;2023-06-14T02:32:52;13.10;61.30
947;DHT22;460;48.734;9.152;2023-06-14T02:35:19;13.10;61.50
947;DHT22;460;48.734;9.152;2023-06-14T02:37:49;13.00;63.40
947;DHT22;460;48.734;9.152;2023-06-14T02:40:16;13.00;64.20
947;DHT22;460;48.734;9.152;2023-06-14T02:42:44;13.00;64.20
947;DHT22;460;48.734;9.152;2023-06-14T02:45:11;13.00;64.60
947;DHT22;460;48.734;9.152;2023-06-14T02:47:41;13.00;63.70
947;DHT22;460;48.734;9.152;2023-06-14T02:50:08;13.00;61.00
947;DHT22;460;48.734;9.152;2023-06-14T02:52:37;13.00;59.20
947;DHT22;460;48.734;9.152;2023-06-14T02:55:05;13.00;59.20
947;DHT22;460;48.734;9.152;2023-06-14T02:57:32;13.00;63.30
947;DHT22;460;48.734;9.152;2023-06-14T02:59:59;12.90;64.50
947;DHT22;460;48.734;9.152;2023-06-14T03:02:26;12.90;64.40
947;DHT22;460;48.734;9.152;2023-06-14T03:04:57;12.70;65.50
947;DHT22;460;48.734;9.152;2023-06-14T03:07:27;12.70;64.10
947;DHT22;460;48.734;9.152;2023-06-14T03:09:56;12.60;62.80
947;DHT22;460;48.734;9.152;2023-06-14T03:12:23;12.60;63.40
947;DHT22;460;48.734;9.152;2023-06-14T03:14:52;12.70;63.30
947;DHT22;460;48.734;9.152;2023-06-14T03:17:22;12.70;62.60
947;DHT22;460;48.734;9.152;2023-06-14T03:19:49;12.70;61.90
947;DHT22;460;48.734;9.152;2023-06-14T03:22:18;12.70;61.70
947;DHT22;460;48.734;9.152;2023-06-14T03:24:45;12.70;65.60
947;DHT22;460;48.734;9.152;2023-06-14T03:27:12;12.60;66.90
947;DHT22;460;48.734;9.152;2023-06-14T03:29:39;12.50;67.40
947;DHT22;460;48.734;9.152;2023-06-14T03:32:07;12.40;65.50
947;DHT22;460;48.734;9.152;2023-06-14T03:34:34;12.30;65.20
947;DHT22;460;48.734;9.152;2023-06-14T03:37:01;12.30;65.70
947;DHT22;460;48.734;9.152;2023-06-14T03:39:29;12.30;65.90
947;DHT22;460;48.734;9.152;2023-06-14T03:41:55;12.40;65.20
947;DHT22;460;48.734;9.152;2023-06-14T03:44:22;12.40;65.50
947;DHT22;460;48.734;9.152;2023-06-14T03:46:49;12.40;65.60
947;DHT22;460;48.734;9.152;2023-06-14T03:49:17;12.50;65.70
947;DHT22;460;48.734;9.152;2023-06-14T03:51:44;12.40;64.40
947;DHT22;460;48.734;9.152;2023-06-14T03:54:16;12.50;65.80
947;DHT22;460;48.734;9.152;2023-06-14T03:56:44;12.40;64.90
947;DHT22;460;48.734;9.152;2023-06-14T03:59:11;12.60;65.90
947;DHT22;460;48.734;9.152;2023-06-14T04:01:38;12.50;67.50
947;DHT22;460;48.734;9.152;2023-06-14T04:04:11;12.50;68.00
947;DHT22;460;48.734;9.152;2023-06-14T04:06:38;12.50;66.70
947;DHT22;460;48.734;9.152;2023-06-14T04:09:06;12.50;66.10
947;DHT22;460;48.734;9.152;2023-06-14T04:11:33;12.50;66.20
947;DHT22;460;48.734;9.152;2023-06-14T04:14:01;12.50;65.60
947;DHT22;460;48.734;9.152;2023-06-14T04:16:28;12.60;64.80
947;DHT22;460;48.734;9.152;2023-06-14T04:18:55;12.60;64.10
947;DHT22;460;48.734;9.152;2023-06-14T04:21:23;12.70;65.30
947;DHT22;460;48.734;9.152;2023-06-14T04:23:51;12.70;64.30
947;DHT22;460;48.734;9.152;2023-06-14T04:26:20;12.70;64.50
947;DHT22;460;48.734;9.152;2023-06-14T04:28:49;12.80;65.40
947;DHT22;460;48.734;9.152;2023-06-14T04:31:17;12.80;66.10
947;DHT22;460;48.734;9.152;2023-06-14T04:33:44;12.90;64.50
947;DHT22;460;48.734;9.152;2023-06-14T04:36:12;13.10;63.30
947;DHT22;460;48.734;9.152;2023-06-14T04:38:39;13.20;62.50
947;DHT22;460;48.734;9.152;2023-06-14T04:41:06;13.30;61.90
947;DHT22;460;48.734;9.152;2023-06-14T04:43:37;13.40;63.00
947;DHT22;460;48.734;9.152;2023-06-14T04:46:04;13.40;62.30
947;DHT22;460;48.734;9.152;2023-06-14T04:48:40;13.50;62.30
947;DHT22;460;48.734;9.152;2023-06-14T04:51:08;13.50;61.40
947;DHT22;460;48.734;9.152;2023-06-14T04:53:35;13.60;60.30
947;DHT22;460;48.734;9.152;2023-06-14T04:56:02;13.70;60.80
947;DHT22;460;48.734;9.152;2023-06-14T04:58:29;13.80;59.70
947;DHT22;460;48.734;9.152;2023-06-14T05:00:57;13.90;60.10
947;DHT22;460;48.734;9.152;2023-06-14T05:03:24;13.90;61.10
947;DHT22;460;48.734;9.152;2023-06-14T05:05:53;14.00;59.90
947;DHT22;460;48.734;9.152;2023-06-14T05:08:20;14.10;60.90
947;DHT22;460;48.734;9.152;2023-06-14T05:10:49;14.20;61.60
947;DHT22;460;48.734;9.152;2023-06-14T05:13:15;14.40;60.90
947;DHT22;460;48.734;9.152;2023-06-14T05:15:42;14.50;60.10
947;DHT22;460;48.734;9.152;2023-06-14T05:18:10;14.60;60.60
947;DHT22;460;48.734;9.152;2023-06-14T05:20:36;14.80;59.20
947;DHT22;460;48.734;9.152;2023-06-14T05:23:05;14.90;59.30
947;DHT22;460;48.734;9.152;2023-06-14T05:25:31;14.90;59.20
947;DHT22;460;48.734;9.152;2023-06-14T05:27:58;14.90;59.20
947;DHT22;460;48.734;9.152;2023-06-14T05:30:25;14.90;58.40
947;DHT22;460;48.734;9.152;2023-06-14T05:32:52;14.90;58.40
947;DHT22;460;48.734;9.152;2023-06-14T05:35:20;15.00;58.80
947;DHT22;460;48.734;9.152;2023-06-14T05:37:48;15.10;58.50
947;DHT22;460;48.734;9.152;2023-06-14T05:40:17;15.10;58.30
947;DHT22;460;48.734;9.152;2023-06-14T05:42:43;15.10;57.80
947;DHT22;460;48.734;9.152;2023-06-14T05:45:10;15.10;57.20
947;DHT22;460;48.734;9.152;2023-06-14T05:47:37;15.20;57.00
947;DHT22;460;48.734;9.152;2023-06-14T05:50:05;15.30;57.10
947;DHT22;460;48.734;9.152;2023-06-14T05:52:32;15.30;56.60
947;DHT22;460;48.734;9.152;2023-06-14T05:54:59;15.40;56.40
947;DHT22;460;48.734;9.152;2023-06-14T05:57:28;15.50;56.60
947;DHT22;460;48.734;9.152;2023-06-14T05:59:55;15.60;56.70
947;DHT22;460;48.734;9.152;2023-06-14T06:02:21;15.60;55.80
947;DHT22;460;48.734;9.152;2023-06-14T06:04:48;15.70;56.00
947;DHT22;460;48.734;9.152;2023-06-14T06:07:15;15.80;56.30
947;DHT22;460;48.734;9.152;2023-06-14T06:09:42;15.90;56.50
947;DHT22;460;48.734;9.152;2023-06-14T06:12:09;16.00;56.50
947;DHT22;460;48.734;9.152;2023-06-14T06:14:37;16.20;56.20
947;DHT22;460;48.734;9.152;2023-06-14T06:17:04;16.30;56.40
947;DHT22;460;48.734;9.152;2023-06-14T06:19:32;16.30;56.00
947;DHT22;460;48.734;9.152;2023-06-14T06:21:58;16.40;55.70
947;DHT22;460;48.734;9.152;2023-06-14T06:24:25;16.40;54.30
947;DHT22;460;48.734;9.152;2023-06-14T06:26:52;16.50;53.90
947;DHT22;460;48.734;9.152;2023-06-14T06:29:19;16.50;54.30
947;DHT22;460;48.734;9.152;2023-06-14T06:31:48;16.60;54.40
947;DHT22;460;48.734;9.152;2023-06-14T06:34:15;16.60;54.30
947;DHT22;460;48.734;9.152;2023-06-14T06:36:42;16.80;54.60
947;DHT22;460;48.734;9.152;2023-06-14T06:39:08;17.00;54.00
947;DHT22;460;48.734;9.152;2023-06-14T06:41:37;17.00;53.60
947;DHT22;460;48.734;9.152;2023-06-14T06:44:05;17.00;54.00
947;DHT22;460;48.734;9.152;2023-06-14T06:46:32;17.10;54.50
947;DHT22;460;48.734;9.152;2023-06-14T06:49:00;17.20;52.90
947;DHT22;460;48.734;9.152;2023-06-14T06:51:27;17.30;53.00
947;DHT22;460;48.734;9.152;2023-06-14T06:53:54;17.50;53.40
947;DHT22;460;48.734;9.152;2023-06-14T06:56:21;17.50;52.60
947;DHT22;460;48.734;9.152;2023-06-14T06:58:48;17.40;52.30
947;DHT22;460;48.734;9.152;2023-06-14T07:01:15;17.60;53.00
947;DHT22;460;48.734;9.152;2023-06-14T07:03:42;18.00;53.10
947;DHT22;460;48.734;9.152;2023-06-14T07:06:10;18.30;52.30
947;DHT22;460;48.734;9.152;2023-06-14T07:08:37;18.30;51.50
947;DHT22;460;48.734;9.152;2023-06-14T07:11:05;18.30;52.20
947;DHT22;460;48.734;9.152;2023-06-14T07:13:32;18.20;51.70
947;DHT22;460;48.734;9.152;2023-06-14T07:15:59;18.20;52.10
947;DHT22;460;48.734;9.152;2023-06-14T07:18:26;18.20;51.90
947;DHT22;460;48.734;9.152;2023-06-14T07:20:54;18.20;53.00
947;DHT22;460;48.734;9.152;2023-06-14T07:23:22;18.20;52.70
947;DHT22;460;48.734;9.152;2023-06-14T07:25:49;18.60;52.60
947;DHT22;460;48.734;9.152;2023-06-14T07:28:16;18.70;52.60
947;DHT22;460;48.734;9.152;2023-06-14T07:30:43;18.80;51.80
947;DHT22;460;48.734;9.152;2023-06-14T07:33:10;18.60;51.70
947;DHT22;460;48.734;9.152;2023-06-14T07:35:37;18.70;51.20
947;DHT22;460;48.734;9.152;2023-06-14T07:38:04;18.90;51.70
947;DHT22;460;48.734;9.152;2023-06-14T07:40:32;19.20;50.90
947;DHT22;460;48.734;9.152;2023-06-14T07:43:08;19.30;50.40
947;DHT22;460;48.734;9.152;2023-06-14T07:45:35;19.40;50.90
947;DHT22;460;48.734;9.152;2023-06-14T07:48:02;19.30;51.10
947;DHT22;460;48.734;9.152;2023-06-14T07:50:29;19.90;50.30
947;DHT22;460;48.734;9.152;2023-06-14T07:52:56;20.00;50.00
947;DHT22;460;48.734;9.152;2023-06-14T07:58:51;20.30;48.80
947;DHT22;460;48.734;9.152;2023-06-14T08:01:18;20.00;49.50
947;DHT22;460;48.734;9.152;2023-06-14T08:03:54;20.00;49.70
947;DHT22;460;48.734;9.152;2023-06-14T08:06:30;20.20;49.30
947;DHT22;460;48.734;9.152;2023-06-14T08:09:08;20.40;49.30
947;DHT22;460;48.734;9.152;2023-06-14T08:11:39;20.50;48.90
947;DHT22;460;48.734;9.152;2023-06-14T08:14:17;20.50;48.60
947;DHT22;460;48.734;9.152;2023-06-14T08:17:15;20.00;48.40
947;DHT22;460;48.734;9.152;2023-06-14T08:20:10;20.30;49.70
947;DHT22;460;48.734;9.152;2023-06-14T08:23:05;20.40;49.40
947;DHT22;460;48.734;9.152;2023-06-14T08:28:21;20.90;49.00
947;DHT22;460;48.734;9.152;2023-06-14T08:30:51;20.80;48.50
947;DHT22;460;48.734;9.152;2023-06-14T08:33:18;20.70;49.00
947;DHT22;460;48.734;9.152;2023-06-14T08:35:45;21.00;49.60
947;DHT22;460;48.734;9.152;2023-06-14T08:38:12;21.20;49.20
947;DHT22;460;48.734;9.152;2023-06-14T08:40:40;21.60;48.50
947;DHT22;460;48.734;9.152;2023-06-14T08:43:07;22.00;47.30
947;DHT22;460;48.734;9.152;2023-06-14T08:45:34;22.00;48.30
947;DHT22;460;48.734;9.152;2023-06-14T08:48:03;22.10;48.50
947;DHT22;460;48.734;9.152;2023-06-14T08:50:32;22.40;47.40
947;DHT22;460;48.734;9.152;2023-06-14T08:53:00;22.50;47.00
947;DHT22;460;48.734;9.152;2023-06-14T08:55:28;22.30;48.60
947;DHT22;460;48.734;9.152;2023-06-14T08:57:56;22.50;47.50
947;DHT22;460;48.734;9.152;2023-06-14T09:00:25;22.60;46.90
947;DHT22;460;48.734;9.152;2023-06-14T09:02:52;22.20;47.80
947;DHT22;460;48.734;9.152;2023-06-14T09:05:24;22.30;48.40
947;DHT22;460;48.734;9.152;2023-06-14T09:07:52;22.50;47.90
947;DHT22;460;48.734;9.152;2023-06-14T09:10:23;22.10;48.20
947;DHT22;460;48.734;9.152;2023-06-14T09:12:51;22.30;47.90
947;DHT22;460;48.734;9.152;2023-06-14T09:15:18;22.20;48.70
947;DHT22;460;48.734;9.152;2023-06-14T09:17:46;22.50;46.60
947;DHT22;460;48.734;9.152;2023-06-14T09:20:12;22.60;48.40
947;DHT22;460;48.734;9.152;2023-06-14T09:22:44;22.70;47.90
947;DHT22;460;48.734;9.152;2023-06-14T09:25:11;22.70;46.90
947;DHT22;460;48.734;9.152;2023-06-14T09:27:41;22.50;48.40
947;DHT22;460;48.734;9.152;2023-06-14T09:30:09;23.00;46.60
947;DHT22;460;48.734;9.152;2023-06-14T09:32:37;23.30;46.20
947;DHT22;460;48.734;9.152;2023-06-14T09:35:05;23.40;47.10
947;DHT22;460;48.734;9.152;2023-06-14T09:37:33;23.60;46.20
947;DHT22;460;48.734;9.152;2023-06-14T09:40:03;23.20;46.40
947;DHT22;460;48.734;9.152;2023-06-14T09:42:32;23.60;45.00
947;DHT22;460;48.734;9.152;2023-06-14T09:45:02;23.90;44.90
947;DHT22;460;48.734;9.152;2023-06-14T09:47:30;24.00;44.40
947;DHT22;460;48.734;9.152;2023-06-14T09:49:57;23.90;44.80
947;DHT22;460;48.734;9.152;2023-06-14T09:52:25;23.90;43.70
947;DHT22;460;48.734;9.152;2023-06-14T09:54:55;24.10;44.90
947;DHT22;460;48.734;9.152;2023-06-14T09:57:24;24.30;43.20
947;DHT22;460;48.734;9.152;2023-06-14T09:59:54;24.20;42.40
947;DHT22;460;48.734;9.152;2023-06-14T10:02:26;24.30;43.20
947;DHT22;460;48.734;9.152;2023-06-14T10:04:58;24.60;43.30
947;DHT22;460;48.734;9.152;2023-06-14T10:07:31;24.70;44.30
947;DHT22;460;48.734;9.152;2023-06-14T10:09:59;24.80;44.70
947;DHT22;460;48.734;9.152;2023-06-14T10:12:27;24.30;43.60
947;DHT22;460;48.734;9.152;2023-06-14T10:14:55;24.10;42.10
947;DHT22;460;48.734;9.152;2023-06-14T10:17:27;24.40;42.10
947;DHT22;460;48.734;9.152;2023-06-14T10:20:03;24.60;43.10
947;DHT22;460;48.734;9.152;2023-06-14T10:22:37;24.60;42.60
947;DHT22;460;48.734;9.152;2023-06-14T10:25:07;24.40;41.80
947;DHT22;460;48.734;9.152;2023-06-14T10:27:38;24.00;43.30
947;DHT22;460;48.734;9.152;2023-06-14T10:30:08;24.40;43.60
947;DHT22;460;48.734;9.152;2023-06-14T10:32:35;24.60;44.40
947;DHT22;460;48.734;9.152;2023-06-14T10:35:22;25.00;43.10
947;DHT22;460;48.734;9.152;2023-06-14T10:37:49;25.10;43.30
947;DHT22;460;48.734;9.152;2023-06-14T10:40:30;25.20;43.90
947;DHT22;460;48.734;9.152;2023-06-14T10:42:58;25.00;42.80
947;DHT22;460;48.734;9.152;2023-06-14T10:45:25;24.90;43.90
947;DHT22;460;48.734;9.152;2023-06-14T10:47:52;24.90;44.20
947;DHT22;460;48.734;9.152;2023-06-14T10:50:27;24.70;43.60
947;DHT22;460;48.734;9.152;2023-06-14T10:52:55;24.10;43.50
947;DHT22;460;48.734;9.152;2023-06-14T10:55:22;23.80;44.60
947;DHT22;460;48.734;9.152;2023-06-14T10:57:51;24.40;44.70
947;DHT22;460;48.734;9.152;2023-06-14T11:00:23;24.80;44.20
947;DHT22;460;48.734;9.152;2023-06-14T11:05:49;25.00;43.10
947;DHT22;460;48.734;9.152;2023-06-14T11:09:04;24.90;43.40
947;DHT22;460;48.734;9.152;2023-06-14T11:11:35;24.80;42.50
947;DHT22;460;48.734;9.152;2023-06-14T11:14:04;25.30;43.50
947;DHT22;460;48.734;9.152;2023-06-14T11:16:33;25.60;42.10
947;DHT22;460;48.734;9.152;2023-06-14T11:19:00;25.80;41.70
947;DHT22;460;48.734;9.152;2023-06-14T11:21:28;26.20;40.40
947;DHT22;460;48.734;9.152;2023-06-14T11:23:57;26.50;40.60
947;DHT22;460;48.734;9.152;2023-06-14T11:26:27;26.60;40.90
947;DHT22;460;48.734;9.152;2023-06-14T11:28:58;27.20;38.80
947;DHT22;460;48.734;9.152;2023-06-14T11:31:25;27.50;39.00
947;DHT22;460;48.734;9.152;2023-06-14T11:33:55;28.00;38.10
947;DHT22;460;48.734;9.152;2023-06-14T11:36:22;28.10;37.20
947;DHT22;460;48.734;9.152;2023-06-14T11:38:49;28.20;38.10
947;DHT22;460;48.734;9.152;2023-06-14T11:41:17;28.80;35.80
947;DHT22;460;48.734;9.152;2023-06-14T11:43:43;29.20;37.10
947;DHT22;460;48.734;9.152;2023-06-14T11:46:13;29.00;38.40
947;DHT22;460;48.734;9.152;2023-06-14T11:48:42;29.30;36.50
947;DHT22;460;48.734;9.152;2023-06-14T11:51:12;29.10;37.40
947;DHT22;460;48.734;9.152;2023-06-14T11:53:39;29.70;36.90
947;DHT22;460;48.734;9.152;2023-06-14T11:56:06;29.60;35.80
947;DHT22;460;48.734;9.152;2023-06-14T11:58:32;29.40;35.10
947;DHT22;460;48.734;9.152;2023-06-14T12:00:59;28.90;36.20
947;DHT22;460;48.734;9.152;2023-06-14T12:03:28;29.20;37.10
947;DHT22;460;48.734;9.152;2023-06-14T12:06:05;29.00;35.80
947;DHT22;460;48.734;9.152;2023-06-14T12:08:34;28.90;36.00
947;DHT22;460;48.734;9.152;2023-06-14T12:11:11;28.60;35.40
947;DHT22;460;48.734;9.152;2023-06-14T12:13:39;28.90;36.60
947;DHT22;460;48.734;9.152;2023-06-14T12:16:07;30.10;34.30
947;DHT22;460;48.734;9.152;2023-06-14T12:18:34;31.10;33.40
947;DHT22;460;48.734;9.152;2023-06-14T12:21:03;31.70;34.10
947;DHT22;460;48.734;9.152;2023-06-14T12:23:46;32.00;34.00
947;DHT22;460;48.734;9.152;2023-06-14T12:26:14;31.50;33.00
947;DHT22;460;48.734;9.152;2023-06-14T12:28:42;31.50;33.00
947;DHT22;460;48.734;9.152;2023-06-14T12:31:09;31.00;33.80
947;DHT22;460;48.734;9.152;2023-06-14T12:33:37;31.70;35.30
947;DHT22;460;48.734;9.152;2023-06-14T12:36:04;33.10;32.40
947;DHT22;460;48.734;9.152;2023-06-14T12:38:32;33.70;31.70
947;DHT22;460;48.734;9.152;2023-06-14T12:41:00;33.90;30.50
947;DHT22;460;48.734;9.152;2023-06-14T12:43:27;33.30;31.80
947;DHT22;460;48.734;9.152;2023-06-14T12:45:54;32.00;31.30
947;DHT22;460;48.734;9.152;2023-06-14T12:48:21;31.00;31.70
947;DHT22;460;48.734;9.152;2023-06-14T12:50:48;31.40;32.40
947;DHT22;460;48.734;9.152;2023-06-14T12:53:15;32.50;32.60
947;DHT22;460;48.734;9.152;2023-06-14T12:55:42;33.50;30.70
947;DHT22;460;48.734;9.152;2023-06-14T12:58:10;32.60;31.10
947;DHT22;460;48.734;9.152;2023-06-14T13:00:39;32.60;33.00
947;DHT22;460;48.734;9.152;2023-06-14T13:03:06;30.50;32.30
947;DHT22;460;48.734;9.152;2023-06-14T13:05:33;29.20;34.40
947;DHT22;460;48.734;9.152;2023-06-14T13:08:00;28.30;35.20
947;DHT22;460;48.734;9.152;2023-06-14T13:10:27;27.90;36.90
947;DHT22;460;48.734;9.152;2023-06-14T13:12:54;29.30;35.50
947;DHT22;460;48.734;9.152;2023-06-14T13:15:24;30.50;35.20
947;DHT22;460;48.734;9.152;2023-06-14T13:17:51;32.30;33.70
947;DHT22;460;48.734;9.152;2023-06-14T13:20:18;33.40;31.50
947;DHT22;460;48.734;9.152;2023-06-14T13:22:45;33.00;32.40
947;DHT22;460;48.734;9.152;2023-06-14T13:25:12;33.30;32.50
947;DHT22;460;48.734;9.152;2023-06-14T13:27:38;34.10;32.10
947;DHT22;460;48.734;9.152;2023-06-14T13:30:06;34.00;30.20
947;DHT22;460;48.734;9.152;2023-06-14T13:32:36;32.50;31.10
947;DHT22;460;48.734;9.152;2023-06-14T13:35:03;31.50;33.70
947;DHT22;460;48.734;9.152;2023-06-14T13:37:30;31.60;33.00
947;DHT22;460;48.734;9.152;2023-06-14T13:39:57;30.30;32.90
947;DHT22;460;48.734;9.152;2023-06-14T13:42:24;29.80;33.70
947;DHT22;460;48.734;9.152;2023-06-14T13:44:50;29.30;34.60
947;DHT22;460;48.734;9.152;2023-06-14T13:47:18;28.90;34.50
947;DHT22;460;48.734;9.152;2023-06-14T13:49:46;29.10;33.20
947;DHT22;460;48.734;9.152;2023-06-14T13:52:13;30.00;33.20
947;DHT22;460;48.734;9.152;2023-06-14T13:54:40;31.10;33.00
947;DHT22;460;48.734;9.152;2023-06-14T13:57:10;31.60;33.80
947;DHT22;460;48.734;9.152;2023-06-14T13:59:38;31.40;33.60
947;DHT22;460;48.734;9.152;2023-06-14T14:02:05;32.60;34.50
947;DHT22;460;48.734;9.152;2023-06-14T14:04:33;33.10;33.70
947;DHT22;460;48.734;9.152;2023-06-14T14:07:02;32.60;32.50
947;DHT22;460;48.734;9.152;2023-06-14T14:09:29;33.80;31.50
947;DHT22;460;48.734;9.152;2023-06-14T14:11:56;34.50;31.20
947;DHT22;460;48.734;9.152;2023-06-14T14:14:22;34.70;31.50
947;DHT22;460;48.734;9.152;2023-06-14T14:16:50;35.30;30.00
947;DHT22;460;48.734;9.152;2023-06-14T14:19:18;35.40;29.50
947;DHT22;460;48.734;9.152;2023-06-14T14:21:45;35.50;29.20
947;DHT22;460;48.734;9.152;2023-06-14T14:24:14;35.30;28.80
947;DHT22;460;48.734;9.152;2023-06-14T14:26:41;33.80;30.20
947;DHT22;460;48.734;9.152;2023-06-14T14:29:08;34.40;31.40
947;DHT22;460;48.734;9.152;2023-06-14T14:31:37;35.00;29.80
947;DHT22;460;48.734;9.152;2023-06-14T14:34:03;35.40;29.10
947;DHT22;460;48.734;9.152;2023-06-14T14:36:30;35.60;29.00
947;DHT22;460;48.734;9.152;2023-06-14T14:38:58;35.40;29.10
947;DHT22;460;48.734;9.152;2023-06-14T14:41:27;34.70;29.00
947;DHT22;460;48.734;9.152;2023-06-14T14:43:54;34.80;29.20
947;DHT22;460;48.734;9.152;2023-06-14T14:46:21;34.50;30.10
947;DHT22;460;48.734;9.152;2023-06-14T14:48:49;33.50;30.70
947;DHT22;460;48.734;9.152;2023-06-14T14:51:15;32.40;31.50
947;DHT22;460;48.734;9.152;2023-06-14T14:53:42;30.70;34.00
947;DHT22;460;48.734;9.152;2023-06-14T14:56:09;30.10;34.30
947;DHT22;460;48.734;9.152;2023-06-14T14:58:38;29.30;34.50
947;DHT22;460;48.734;9.152;2023-06-14T15:01:05;28.90;35.10
947;DHT22;460;48.734;9.152;2023-06-14T15:03:32;28.40;36.60
947;DHT22;460;48.734;9.152;2023-06-14T15:05:59;27.20;37.40
947;DHT22;460;48.734;9.152;2023-06-14T15:08:26;27.70;37.90
947;DHT22;460;48.734;9.152;2023-06-14T15:10:53;28.20;36.20
947;DHT22;460;48.734;9.152;2023-06-14T15:13:19;28.70;35.80
947;DHT22;460;48.734;9.152;2023-06-14T15:15:49;27.60;35.50
947;DHT22;460;48.734;9.152;2023-06-14T15:18:16;27.20;37.20
947;DHT22;460;48.734;9.152;2023-06-14T15:20:46;26.60;37.60
947;DHT22;460;48.734;9.152;2023-06-14T15:23:12;26.50;38.20
947;DHT22;460;48.734;9.152;2023-06-14T15:25:45;26.60;38.30
947;DHT22;460;48.734;9.152;2023-06-14T15:28:12;26.60;37.30
947;DHT22;460;48.734;9.152;2023-06-14T15:30:39;26.60;38.10
947;DHT22;460;48.734;9.152;2023-06-14T15:33:07;26.80;36.90
947;DHT22;460;48.734;9.152;2023-06-14T15:35:34;25.80;36.80
947;DHT22;460;48.734;9.152;2023-06-14T15:38:01;26.20;36.90
947;DHT22;460;48.734;9.152;2023-06-14T15:40:28;26.30;37.60
947;DHT22;460;48.734;9.152;2023-06-14T15:42:55;26.40;38.50
947;DHT22;460;48.734;9.152;2023-06-14T15:45:21;26.50;37.70
947;DHT22;460;48.734;9.152;2023-06-14T15:47:48;25.80;39.10
947;DHT22;460;48.734;9.152;2023-06-14T15:50:16;25.90;38.30
947;DHT22;460;48.734;9.152;2023-06-14T15:52:43;26.20;37.60
947;DHT22;460;48.734;9.152;2023-06-14T15:55:12;25.90;39.10
947;DHT22;460;48.734;9.152;2023-06-14T15:57:38;25.30;39.20
947;DHT22;460;48.734;9.152;2023-06-14T16:00:06;25.40;39.40
947;DHT22;460;48.734;9.152;2023-06-14T16:02:33;25.50;39.10
947;DHT22;460;48.734;9.152;2023-06-14T16:05:00;25.10;39.50
947;DHT22;460;48.734;9.152;2023-06-14T16:07:28;24.90;39.70
947;DHT22;460;48.734;9.152;2023-06-14T16:09:55;25.00;40.50
947;DHT22;460;48.734;9.152;2023-06-14T16:12:22;24.80;40.30
947;DHT22;460;48.734;9.152;2023-06-14T16:14:48;24.90;40.00
947;DHT22;460;48.734;9.152;2023-06-14T16:17:15;24.80;39.60
947;DHT22;460;48.734;9.152;2023-06-14T16:19:42;24.60;40.50
947;DHT22;460;48.734;9.152;2023-06-14T16:22:09;24.50;40.60
947;DHT22;460;48.734;9.152;2023-06-14T16:24:37;24.40;41.30
947;DHT22;460;48.734;9.152;2023-06-14T16:27:04;24.20;41.20
947;DHT22;460;48.734;9.152;2023-06-14T16:29:32;24.10;41.40
947;DHT22;460;48.734;9.152;2023-06-14T16:31:58;24.10;41.70
947;DHT22;460;48.734;9.152;2023-06-14T16:34:26;24.20;41.00
947;DHT22;460;48.734;9.152;2023-06-14T16:36:53;23.80;41.00
947;DHT22;460;48.734;9.152;2023-06-14T16:39:20;23.50;41.20
947;DHT22;460;48.734;9.152;2023-06-14T16:41:48;23.60;43.00
947;DHT22;460;48.734;9.152;2023-06-14T16:44:15;23.40;41.80
947;DHT22;460;48.734;9.152;2023-06-14T16:46:41;23.40;42.20
947;DHT22;460;48.734;9.152;2023-06-14T16:49:08;23.60;42.50
947;DHT22;460;48.734;9.152;2023-06-14T16:51:35;23.60;42.70